createdAt,value
2023-05-05T00:00:47.545Z,51.68
2023-05-05T00:01:47.564Z,51.51
2023-05-05T00:02:47.630Z,50.50
2023-05-05T00:03:47.671Z,44.15
2023-05-05T00:04:47.450Z,44.08
2023-05-05T00:05:47.476Z,44.87
2023-05-05T00:06:47.454Z,50.06
2023-05-05T00:07:47.469Z,48.36
2023-05-05T00:08:48.161Z,45.70
2023-05-05T00:09:47.476Z,46.67
2023-05-05T00:10:47.437Z,52.73
2023-05-05T00:11:47.474Z,46.66
2023-05-05T00:12:47.456Z,55.71
2023-05-05T00:13:47.430Z,46.08
2023-05-05T00:14:47.366Z,48.72
2023-05-05T00:15:47.451Z,43.63
2023-05-05T00:16:47.448Z,56.35
2023-05-05T00:17:47.446Z,41.90
2023-05-05T00:18:47.382Z,46.46
2023-05-05T00:19:47.355Z,39.47
2023-05-05T00:20:47.553Z,48.19
2023-05-05T00:21:47.345Z,55.50
2023-05-05T00:22:47.336Z,41.95
2023-05-05T00:23:47.321Z,51.16
2023-05-05T00:24:47.362Z,38.95
2023-05-05T00:25:47.282Z,40.19
2023-05-05T00:26:47.299Z,57.87
2023-05-05T00:27:47.270Z,49.52
2023-05-05T00:28:47.295Z,57.03
2023-05-05T00:29:47.259Z,41.79
2023-05-05T00:30:47.316Z,46.74
2023-05-05T00:31:47.268Z,36.39
2023-05-05T00:32:47.273Z,47.20
2023-05-05T00:33:47.227Z,37.40
2023-05-05T00:34:47.160Z,39.37
2023-05-05T00:35:47.241Z,50.21
2023-05-05T00:36:47.192Z,41.56
2023-05-05T00:37:47.166Z,38.75
2023-05-05T00:38:47.192Z,54.81
2023-05-05T00:39:47.139Z,54.34
2023-05-05T00:40:47.196Z,56.30
2023-05-05T00:41:47.134Z,58.49
2023-05-05T00:42:47.142Z,40.36
2023-05-05T00:43:47.083Z,44.56
2023-05-05T00:44:47.143Z,62.17
2023-05-05T00:45:47.075Z,48.61
2023-05-05T00:46:47.064Z,46.57
2023-05-05T00:47:47.161Z,47.62
2023-05-05T00:48:47.137Z,44.21
2023-05-05T00:49:47.054Z,40.61
2023-05-05T00:50:47.016Z,50.20
2023-05-05T00:51:47.031Z,41.92
2023-05-05T00:52:46.984Z,51.18
2023-05-05T00:53:47.043Z,56.98
2023-05-05T00:54:47.088Z,45.76
2023-05-05T00:55:46.943Z,50.87
2023-05-05T00:56:46.954Z,49.43
2023-05-05T00:57:46.966Z,52.95
2023-05-05T00:58:46.998Z,49.61
2023-05-05T00:59:46.960Z,55.69
2023-05-05T01:00:46.967Z,46.07
2023-05-05T01:01:47.064Z,54.03
2023-05-05T01:02:47.006Z,52.15
2023-05-05T01:03:47.056Z,51.60
2023-05-05T01:04:46.872Z,47.58
2023-05-05T01:05:46.875Z,55.23
2023-05-05T01:06:46.970Z,47.11
2023-05-05T01:07:46.848Z,54.08
2023-05-05T01:08:46.952Z,55.60
2023-05-05T01:09:46.883Z,48.05
2023-05-05T01:10:46.824Z,53.65
2023-05-05T01:11:46.822Z,60.59
2023-05-05T01:12:46.866Z,47.04
2023-05-05T01:13:47.790Z,46.29
2023-05-05T01:14:46.795Z,50.92
2023-05-05T01:15:46.794Z,50.01
2023-05-05T01:16:46.839Z,48.03
2023-05-05T01:17:46.825Z,48.36
2023-05-05T01:18:46.748Z,46.90
2023-05-05T01:19:46.746Z,44.85
2023-05-05T01:20:46.830Z,48.32
2023-05-05T01:21:46.713Z,52.74
2023-05-05T01:22:46.791Z,51.47
2023-05-05T01:23:46.725Z,52.04
2023-05-05T01:24:46.728Z,54.78
2023-05-05T01:25:46.670Z,48.60
2023-05-05T01:26:46.687Z,54.15
2023-05-05T01:27:46.672Z,50.71
2023-05-05T01:28:46.636Z,49.11
2023-05-05T01:29:46.636Z,48.99
2023-05-05T01:30:46.598Z,48.45
2023-05-05T01:31:46.645Z,54.76
2023-05-05T01:32:46.685Z,41.37
2023-05-05T01:33:46.587Z,53.11
2023-05-05T01:34:46.559Z,50.66
2023-05-05T01:35:46.596Z,53.30
2023-05-05T01:36:46.600Z,49.45
2023-05-05T01:37:46.552Z,48.61
2023-05-05T01:38:46.635Z,46.83
2023-05-05T01:39:46.550Z,58.37
2023-05-05T01:40:46.553Z,62.20
2023-05-05T01:41:46.532Z,55.05
2023-05-05T01:42:46.526Z,45.50
2023-05-05T01:43:46.484Z,55.76
2023-05-05T01:44:46.468Z,50.73
2023-05-05T01:45:46.501Z,54.13
2023-05-05T01:46:46.458Z,56.86
2023-05-05T01:47:46.477Z,44.64
2023-05-05T01:48:46.408Z,48.51
2023-05-05T01:49:46.439Z,55.23
2023-05-05T01:50:47.198Z,58.72
2023-05-05T01:51:46.428Z,53.91
2023-05-05T01:52:46.514Z,45.06
2023-05-05T01:53:46.378Z,45.85
2023-05-05T01:54:46.431Z,50.65
2023-05-05T01:55:46.354Z,50.37
2023-05-05T01:56:46.357Z,58.05
2023-05-05T01:57:46.306Z,54.48
2023-05-05T01:58:46.339Z,57.32
2023-05-05T01:59:46.347Z,43.14
2023-05-05T02:00:46.314Z,57.87
2023-05-05T02:01:46.332Z,50.35
2023-05-05T02:02:46.579Z,49.48
2023-05-05T02:03:46.268Z,54.90
2023-05-05T02:04:46.343Z,56.00
2023-05-05T02:05:46.276Z,50.37
2023-05-05T02:06:46.252Z,56.56
2023-05-05T02:07:46.229Z,48.69
2023-05-05T02:08:46.330Z,54.31
2023-05-05T02:09:46.214Z,51.57
2023-05-05T02:10:46.197Z,47.18
2023-05-05T02:11:46.190Z,50.96
2023-05-05T02:12:46.191Z,55.92
2023-05-05T02:13:46.206Z,52.90
2023-05-05T02:14:46.225Z,52.46
2023-05-05T02:15:46.215Z,54.64
2023-05-05T02:16:46.128Z,50.95
2023-05-05T02:17:46.209Z,54.09
2023-05-05T02:18:46.165Z,54.00
2023-05-05T02:19:46.114Z,49.78
2023-05-05T02:20:46.127Z,48.36
2023-05-05T02:21:46.151Z,49.73
2023-05-05T02:22:47.154Z,45.31
2023-05-05T02:23:46.098Z,42.39
2023-05-05T02:24:46.051Z,48.98
2023-05-05T02:25:46.060Z,40.80
2023-05-05T02:26:46.065Z,43.84
2023-05-05T02:27:46.768Z,53.16
2023-05-05T02:28:46.041Z,51.08
2023-05-05T02:29:46.026Z,56.69
2023-05-05T02:30:46.067Z,55.71
2023-05-05T02:32:13.698Z,53.28
2023-05-05T02:32:46.222Z,45.68
2023-05-05T02:33:46.107Z,49.96
2023-05-05T02:34:46.065Z,51.73
2023-05-05T02:35:46.027Z,51.05
2023-05-05T02:36:46.069Z,53.86
2023-05-05T02:37:46.573Z,54.73
2023-05-05T02:38:45.979Z,52.68
2023-05-05T02:39:45.972Z,54.58
2023-05-05T02:40:45.949Z,51.98
2023-05-05T02:41:46.034Z,52.11
2023-05-05T02:42:46.017Z,57.93
2023-05-05T02:43:45.965Z,56.79
2023-05-05T02:44:45.998Z,58.98
2023-05-05T02:45:45.929Z,57.15
2023-05-05T02:46:46.040Z,49.41
2023-05-05T02:47:45.936Z,55.02
2023-05-05T02:48:45.871Z,54.72
2023-05-05T02:49:45.960Z,55.90
2023-05-05T02:50:45.884Z,54.66
2023-05-05T02:51:45.867Z,56.43
2023-05-05T02:52:45.797Z,57.95
2023-05-05T02:53:45.910Z,55.03
2023-05-05T02:54:45.868Z,53.87
2023-05-05T02:55:45.871Z,57.51
2023-05-05T02:56:45.817Z,51.34
2023-05-05T02:57:45.798Z,54.20
2023-05-05T02:58:45.809Z,55.11
2023-05-05T02:59:45.826Z,54.60
2023-05-05T03:00:46.657Z,55.75
2023-05-05T03:01:45.789Z,58.85
2023-05-05T03:02:45.904Z,57.27
2023-05-05T03:03:45.784Z,56.31
2023-05-05T03:04:45.713Z,54.52
2023-05-05T03:05:45.749Z,54.68
2023-05-05T03:06:45.710Z,50.32
2023-05-05T03:07:45.789Z,53.07
2023-05-05T03:08:45.697Z,55.61
2023-05-05T03:09:45.706Z,57.93
2023-05-05T03:10:45.653Z,55.94
2023-05-05T03:11:45.637Z,56.45
2023-05-05T03:12:45.662Z,57.20
2023-05-05T03:13:45.656Z,55.33
2023-05-05T03:14:45.680Z,57.06
2023-05-05T03:15:46.361Z,59.51
2023-05-05T03:16:45.814Z,55.10
2023-05-05T03:17:45.659Z,57.12
2023-05-05T03:18:45.579Z,59.80
2023-05-05T03:19:45.578Z,58.66
2023-05-05T03:20:45.545Z,56.89
2023-05-05T03:21:45.572Z,61.86
2023-05-05T03:22:45.600Z,59.19
2023-05-05T03:23:45.598Z,58.56
2023-05-05T03:24:45.482Z,60.52
2023-05-05T03:25:45.526Z,58.91
2023-05-05T03:26:45.486Z,62.58
2023-05-05T03:27:45.513Z,58.27
2023-05-05T03:28:45.510Z,60.61
2023-05-05T03:29:45.454Z,61.34
2023-05-05T03:30:45.559Z,60.90
2023-05-05T03:31:45.471Z,57.93
2023-05-05T03:32:45.478Z,58.48
2023-05-05T03:33:45.445Z,58.30
2023-05-05T03:34:45.398Z,61.34
2023-05-05T03:35:46.332Z,60.75
2023-05-05T03:36:45.444Z,57.97
2023-05-05T03:37:45.404Z,59.56
2023-05-05T03:38:45.342Z,59.75
2023-05-05T03:39:45.491Z,58.01
2023-05-05T03:40:45.349Z,61.62
2023-05-05T03:41:45.386Z,62.65
2023-05-05T03:42:45.322Z,62.22
2023-05-05T03:43:45.348Z,61.42
2023-05-05T03:44:45.368Z,59.08
2023-05-05T03:45:45.326Z,60.92
2023-05-05T03:46:45.373Z,62.30
2023-05-05T03:47:45.390Z,58.78
2023-05-05T03:48:45.283Z,60.92
2023-05-05T03:49:45.258Z,61.58
2023-05-05T03:50:45.292Z,62.92
2023-05-05T03:51:45.335Z,58.96
2023-05-05T03:52:45.210Z,61.45
2023-05-05T03:53:45.249Z,61.19
2023-05-05T03:54:45.202Z,61.87
2023-05-05T03:55:45.214Z,63.26
2023-05-05T03:56:45.154Z,61.28
2023-05-05T03:57:45.215Z,60.37
2023-05-05T03:58:45.232Z,63.11
2023-05-05T03:59:45.173Z,61.23
2023-05-05T04:00:45.233Z,58.91
2023-05-05T04:01:45.203Z,58.87
2023-05-05T04:02:45.341Z,62.06
2023-05-05T04:03:45.214Z,63.21
2023-05-05T04:04:45.119Z,62.38
2023-05-05T04:05:45.172Z,58.90
2023-05-05T04:06:45.096Z,60.98
2023-05-05T04:07:45.743Z,61.18
2023-05-05T04:08:45.109Z,58.72
2023-05-05T04:09:45.654Z,58.56
2023-05-05T04:10:45.039Z,60.18
2023-05-05T04:11:45.065Z,59.96
2023-05-05T04:12:45.104Z,58.59
2023-05-05T04:13:45.117Z,59.45
2023-05-05T04:14:45.059Z,62.04
2023-05-05T04:15:45.027Z,59.45
2023-05-05T04:16:45.057Z,61.90
2023-05-05T04:17:45.058Z,63.19
2023-05-05T04:18:44.993Z,60.29
2023-05-05T04:19:45.012Z,61.41
2023-05-05T04:20:45.007Z,62.59
2023-05-05T04:21:45.000Z,62.39
2023-05-05T04:22:44.953Z,60.86
2023-05-05T04:23:44.959Z,63.34
2023-05-05T04:24:44.948Z,61.20
2023-05-05T04:25:44.921Z,62.17
2023-05-05T04:26:44.943Z,61.46
2023-05-05T04:27:44.889Z,60.50
2023-05-05T04:28:45.446Z,62.39
2023-05-05T04:29:44.897Z,61.54
2023-05-05T04:30:44.887Z,62.98
2023-05-05T04:31:44.898Z,62.11
2023-05-05T04:32:44.866Z,61.52
2023-05-05T04:33:44.883Z,59.89
2023-05-05T04:34:44.822Z,61.96
2023-05-05T04:35:44.808Z,61.74
2023-05-05T04:36:44.816Z,62.07
2023-05-05T04:37:44.841Z,60.62
2023-05-05T04:38:44.912Z,60.19
2023-05-05T04:39:44.782Z,61.56
2023-05-05T04:40:44.797Z,61.00
2023-05-05T04:41:44.769Z,61.84
2023-05-05T04:42:44.783Z,60.69
2023-05-05T04:43:44.778Z,60.20
2023-05-05T04:44:44.872Z,61.39
2023-05-05T04:45:44.727Z,62.14
2023-05-05T04:46:44.791Z,61.31
2023-05-05T04:47:44.736Z,60.33
2023-05-05T04:48:44.723Z,60.96
2023-05-05T04:49:44.714Z,60.14
2023-05-05T04:50:44.717Z,59.23
2023-05-05T04:51:44.919Z,60.89
2023-05-05T04:52:44.640Z,59.64
2023-05-05T04:53:44.649Z,61.48
2023-05-05T04:54:44.644Z,61.16
2023-05-05T04:55:44.745Z,60.74
2023-05-05T04:56:44.646Z,62.30
2023-05-05T04:57:44.622Z,60.55
2023-05-05T04:58:44.629Z,57.12
2023-05-05T04:59:44.592Z,58.94
2023-05-05T05:00:44.578Z,57.44
2023-05-05T05:01:44.688Z,58.13
2023-05-05T05:02:44.668Z,60.45
2023-05-05T05:03:44.707Z,59.01
2023-05-05T05:04:44.556Z,60.01
2023-05-05T05:05:44.509Z,58.10
2023-05-05T05:06:44.490Z,58.72
2023-05-05T05:07:45.297Z,60.48
2023-05-05T05:08:44.477Z,59.19
2023-05-05T05:09:44.484Z,60.18
2023-05-05T05:10:44.493Z,58.48
2023-05-05T05:11:44.506Z,57.82
2023-05-05T05:12:44.498Z,57.37
2023-05-05T05:13:44.438Z,57.79
2023-05-05T05:14:44.535Z,57.50
2023-05-05T05:15:44.429Z,59.05
2023-05-05T05:16:44.536Z,58.08
2023-05-05T05:17:44.459Z,60.05
2023-05-05T05:18:44.417Z,60.33
2023-05-05T05:19:44.434Z,59.00
2023-05-05T05:20:44.390Z,58.50
2023-05-05T05:21:44.404Z,59.65
2023-05-05T05:22:45.333Z,60.58
2023-05-05T05:23:44.394Z,60.99
2023-05-05T05:24:44.408Z,61.11
2023-05-05T05:25:44.419Z,59.73
2023-05-05T05:26:44.377Z,61.90
2023-05-05T05:27:44.765Z,60.61
2023-05-05T05:28:44.290Z,62.51
2023-05-05T05:29:44.327Z,63.42
2023-05-05T05:30:44.343Z,62.94
2023-05-05T05:31:44.328Z,62.17
2023-05-05T05:32:44.302Z,60.25
2023-05-05T05:33:44.243Z,58.30
2023-05-05T05:34:44.260Z,59.83
2023-05-05T05:35:44.245Z,58.49
2023-05-05T05:36:44.220Z,60.60
2023-05-05T05:37:44.830Z,56.83
2023-05-05T05:38:44.230Z,57.94
2023-05-05T05:39:44.197Z,60.19
2023-05-05T05:40:44.151Z,58.48
2023-05-05T05:41:44.195Z,58.09
2023-05-05T05:42:44.171Z,58.84
2023-05-05T05:43:44.133Z,58.84
2023-05-05T05:44:44.186Z,59.19
2023-05-05T05:45:44.286Z,58.41
2023-05-05T05:46:44.121Z,57.67
2023-05-05T05:47:44.097Z,56.47
2023-05-05T05:48:44.196Z,58.04
2023-05-05T05:49:44.120Z,56.62
2023-05-05T05:50:44.102Z,56.04
2023-05-05T05:51:44.275Z,57.66
2023-05-05T05:52:44.102Z,56.17
2023-05-05T05:53:44.153Z,56.44
2023-05-05T05:54:45.534Z,56.19
2023-05-05T05:56:33.272Z,55.31
2023-05-05T06:00:55.755Z,55.64
2023-05-05T06:02:03.303Z,54.28
2023-05-05T06:02:59.159Z,54.36
2023-05-05T06:06:37.234Z,55.37
2023-05-05T06:07:25.647Z,55.89
2023-05-05T06:08:23.060Z,55.42
2023-05-05T06:18:18.820Z,56.94
2023-05-05T06:33:47.062Z,55.48
2023-05-05T06:34:44.978Z,53.27
2023-05-05T06:35:45.182Z,56.09
2023-05-05T06:36:53.318Z,55.59
2023-05-05T06:37:45.778Z,58.14
2023-05-05T06:39:10.353Z,57.45
2023-05-05T06:40:03.577Z,54.32
2023-05-05T06:43:40.200Z,0.00
2023-05-05T06:44:07.972Z,56.25
2023-05-05T06:45:02.804Z,56.34
2023-05-05T06:46:04.088Z,55.62
2023-05-05T06:51:57.662Z,57.10
2023-05-05T06:52:53.478Z,56.25
2023-05-05T06:53:53.118Z,54.55
2023-05-05T06:55:12.234Z,56.42
2023-05-05T07:00:12.339Z,54.27
2023-05-05T07:01:12.182Z,55.46
2023-05-05T07:02:12.538Z,54.37
2023-05-05T07:03:12.173Z,55.13
2023-05-05T07:04:19.144Z,53.66
2023-05-05T07:05:13.073Z,54.84
2023-05-05T07:06:15.445Z,52.80
2023-05-05T07:07:13.047Z,53.03
2023-05-05T07:08:16.392Z,53.19
2023-05-05T07:09:15.233Z,52.40
2023-05-05T07:10:16.899Z,56.66
2023-05-05T07:11:16.620Z,54.66
2023-05-05T07:12:14.312Z,55.93
2023-05-05T07:13:14.823Z,54.60
2023-05-05T07:14:17.141Z,54.88
2023-05-05T07:15:26.926Z,56.41
2023-05-05T07:16:14.275Z,52.47
2023-05-05T07:17:13.280Z,55.59
2023-05-05T07:18:13.344Z,55.87
2023-05-05T07:19:14.593Z,53.93
2023-05-05T07:20:13.932Z,54.55
2023-05-05T07:21:13.429Z,55.85
2023-05-05T07:22:13.368Z,55.27
2023-05-05T07:23:23.913Z,54.81
2023-05-05T07:24:13.175Z,53.63
2023-05-05T07:25:18.223Z,56.10
2023-05-05T07:26:13.658Z,53.62
2023-05-05T07:27:14.277Z,56.07
2023-05-05T07:28:13.589Z,54.82
2023-05-05T07:29:19.511Z,53.14
2023-05-05T07:30:16.343Z,53.30
2023-05-05T07:31:16.100Z,52.38
2023-05-05T07:32:14.198Z,53.06
2023-05-05T07:33:12.920Z,52.66
2023-05-05T07:34:13.046Z,54.71
2023-05-05T07:35:13.687Z,54.47
2023-05-05T07:36:13.488Z,51.19
2023-05-05T07:37:12.888Z,53.44
2023-05-05T07:38:12.974Z,54.72
2023-05-05T07:39:22.455Z,54.24
2023-05-05T07:40:12.833Z,55.88
2023-05-05T07:41:15.522Z,52.90
2023-05-05T07:42:13.151Z,54.23
2023-05-05T07:43:12.785Z,56.72
2023-05-05T07:44:12.821Z,52.63
2023-05-05T07:45:12.773Z,53.45
2023-05-05T07:46:12.829Z,56.99
2023-05-05T07:47:12.762Z,56.09
2023-05-05T07:48:12.850Z,58.02
2023-05-05T07:49:12.578Z,54.63
2023-05-05T07:50:13.053Z,55.75
2023-05-05T07:51:13.174Z,54.92
2023-05-05T07:52:13.330Z,55.13
2023-05-05T07:53:14.856Z,55.14
2023-05-05T07:54:13.817Z,52.81
2023-05-05T07:55:13.225Z,56.42
2023-05-05T07:56:13.314Z,55.36
2023-05-05T07:57:13.303Z,56.65
2023-05-05T07:58:13.191Z,57.12
2023-05-05T07:59:13.239Z,56.85
2023-05-05T08:00:13.150Z,56.93
2023-05-05T08:01:14.660Z,54.15
2023-05-05T08:02:14.385Z,56.54
2023-05-05T08:03:13.287Z,56.56
2023-05-05T08:04:15.102Z,55.98
2023-05-05T08:05:13.625Z,55.12
2023-05-05T08:06:12.788Z,55.87
2023-05-05T08:07:12.914Z,56.00
2023-05-05T08:08:12.661Z,56.59
2023-05-05T08:09:13.427Z,55.00
2023-05-05T08:10:13.208Z,54.40
2023-05-05T08:11:13.432Z,56.81
2023-05-05T08:12:12.793Z,56.49
2023-05-05T08:13:13.240Z,54.13
2023-05-05T08:14:13.956Z,57.24
2023-05-05T08:15:12.879Z,55.40
2023-05-05T08:16:12.906Z,55.10
2023-05-05T08:17:12.962Z,53.34
2023-05-05T08:18:13.617Z,54.23
2023-05-05T08:19:27.645Z,57.73
2023-05-05T08:20:13.939Z,58.33
2023-05-05T08:21:13.078Z,55.47
2023-05-05T08:22:14.638Z,54.92
2023-05-05T08:23:12.459Z,56.05
2023-05-05T08:24:12.816Z,56.71
2023-05-05T08:25:13.000Z,55.54
2023-05-05T08:26:12.588Z,54.60
2023-05-05T08:27:13.593Z,51.20
2023-05-05T08:28:12.483Z,54.02
2023-05-05T08:29:13.142Z,53.68
2023-05-05T08:30:12.528Z,56.08
2023-05-05T08:31:13.506Z,51.20
2023-05-05T08:32:12.494Z,52.84
2023-05-05T08:33:13.413Z,53.24
2023-05-05T08:34:13.299Z,53.16
2023-05-05T08:35:12.512Z,56.55
2023-05-05T08:36:14.907Z,53.90
2023-05-05T08:37:13.484Z,52.69
2023-05-05T08:38:13.279Z,53.29
2023-05-05T08:39:15.443Z,55.01
2023-05-05T08:40:12.612Z,56.26
2023-05-05T08:41:12.463Z,52.13
2023-05-05T08:42:15.814Z,55.55
2023-05-05T08:43:14.417Z,53.59
2023-05-05T08:44:12.830Z,53.76
2023-05-05T08:45:13.445Z,54.76
2023-05-05T08:46:13.039Z,52.86
2023-05-05T08:47:12.415Z,54.76
2023-05-05T08:48:12.651Z,54.57
2023-05-05T08:49:12.341Z,51.88
2023-05-05T08:50:12.567Z,53.99
2023-05-05T08:51:14.035Z,52.71
2023-05-05T08:52:13.238Z,55.52
2023-05-05T08:53:12.161Z,54.25
2023-05-05T08:54:12.570Z,52.67
2023-05-05T08:55:12.214Z,52.90
2023-05-05T08:56:12.723Z,56.64
2023-05-05T08:57:12.385Z,55.70
2023-05-05T08:58:12.267Z,54.38
2023-05-05T08:59:12.335Z,51.35
2023-05-05T09:00:12.562Z,53.17
2023-05-05T09:01:13.684Z,55.28
2023-05-05T09:02:11.962Z,52.14
2023-05-05T09:03:12.133Z,53.13
2023-05-05T09:04:12.607Z,51.58
2023-05-05T09:05:12.004Z,52.90
2023-05-05T09:06:11.900Z,54.67
2023-05-05T09:07:12.938Z,55.75
2023-05-05T09:08:12.121Z,50.75
2023-05-05T09:09:12.183Z,51.50
2023-05-05T09:10:12.155Z,51.22
2023-05-05T09:11:12.975Z,53.01
2023-05-05T09:12:12.336Z,53.19
2023-05-05T09:13:11.906Z,55.05
2023-05-05T09:14:11.815Z,51.09
2023-05-05T09:15:11.906Z,52.36
2023-05-05T09:16:11.816Z,53.95
2023-05-05T09:17:11.794Z,51.43
2023-05-05T09:18:11.968Z,51.81
2023-05-05T09:19:11.629Z,51.96
2023-05-05T09:20:12.663Z,52.84
2023-05-05T09:21:11.931Z,51.86
2023-05-05T09:22:11.945Z,52.77
2023-05-05T09:23:12.054Z,56.62
2023-05-05T09:24:12.316Z,52.35
2023-05-05T09:25:11.782Z,53.56
2023-05-05T09:26:11.816Z,52.99
2023-05-05T09:27:11.930Z,51.64
2023-05-05T09:28:13.997Z,53.51
2023-05-05T09:29:12.524Z,52.50
2023-05-05T09:30:12.123Z,52.90
2023-05-05T09:31:12.001Z,49.46
2023-05-05T09:32:11.608Z,49.03
2023-05-05T09:33:11.666Z,49.04
2023-05-05T09:34:11.756Z,49.11
2023-05-05T09:35:11.731Z,52.21
2023-05-05T09:36:11.675Z,57.04
2023-05-05T09:37:11.750Z,51.06
2023-05-05T09:38:12.522Z,52.98
2023-05-05T09:39:11.754Z,53.02
2023-05-05T09:40:11.810Z,53.63
2023-05-05T09:41:12.307Z,52.82
2023-05-05T09:42:11.892Z,53.01
2023-05-05T09:43:12.305Z,50.21
2023-05-05T09:44:11.889Z,53.00
2023-05-05T09:45:11.588Z,55.24
2023-05-05T09:46:11.764Z,53.80
2023-05-05T09:47:26.032Z,50.41
2023-05-05T09:48:13.625Z,52.78
2023-05-05T09:49:11.408Z,52.53
2023-05-05T09:50:14.131Z,52.29
2023-05-05T09:51:11.567Z,53.62
2023-05-05T09:52:11.922Z,52.39
2023-05-05T09:53:11.383Z,52.70
2023-05-05T09:54:11.932Z,51.58
2023-05-05T09:55:11.412Z,50.63
2023-05-05T09:56:11.311Z,49.00
2023-05-05T09:57:12.318Z,51.02
2023-05-05T09:58:11.665Z,51.52
2023-05-05T09:59:11.560Z,49.07
2023-05-05T10:00:12.108Z,50.94
2023-05-05T10:01:11.788Z,52.85
2023-05-05T10:02:11.527Z,52.32
2023-05-05T10:03:11.409Z,52.08
2023-05-05T10:04:11.286Z,49.27
2023-05-05T10:05:12.032Z,50.73
2023-05-05T10:06:11.267Z,50.45
2023-05-05T10:07:11.433Z,49.53
2023-05-05T10:08:11.117Z,50.43
2023-05-05T10:09:11.184Z,51.84
2023-05-05T10:10:11.463Z,51.65
2023-05-05T10:11:12.055Z,50.13
2023-05-05T10:12:12.014Z,51.06
2023-05-05T10:13:11.523Z,47.29
2023-05-05T10:14:11.326Z,50.85
2023-05-05T10:15:11.254Z,50.87
2023-05-05T10:16:11.217Z,51.27
2023-05-05T10:17:11.266Z,51.99
2023-05-05T10:18:11.602Z,52.21
2023-05-05T10:19:11.161Z,51.01
2023-05-05T10:20:11.497Z,49.57
2023-05-05T10:21:11.197Z,51.99
2023-05-05T10:22:11.072Z,48.26
2023-05-05T10:23:11.035Z,48.82
2023-05-05T10:24:11.416Z,47.48
2023-05-05T10:25:11.080Z,51.68
2023-05-05T10:26:11.064Z,49.40
2023-05-05T10:27:12.628Z,51.14
2023-05-05T10:28:12.030Z,50.03
2023-05-05T10:29:10.967Z,48.19
2023-05-05T10:30:11.211Z,47.95
2023-05-05T10:31:24.170Z,51.83
2023-05-05T10:32:40.840Z,49.35
2023-05-05T10:33:30.067Z,45.02
2023-05-05T10:34:12.998Z,50.07
2023-05-05T10:35:11.031Z,51.83
2023-05-05T10:36:10.950Z,50.10
2023-05-05T10:37:10.980Z,51.57
2023-05-05T10:38:10.926Z,51.17
2023-05-05T10:39:10.978Z,53.18
2023-05-05T10:40:11.238Z,52.34
2023-05-05T10:41:10.983Z,49.97
2023-05-05T10:42:11.112Z,51.33
2023-05-05T10:43:11.631Z,50.35
2023-05-05T10:44:10.885Z,50.06
2023-05-05T10:45:11.211Z,51.28
2023-05-05T10:46:10.887Z,50.23
2023-05-05T10:47:10.892Z,51.57
2023-05-05T10:48:10.971Z,52.18
2023-05-05T10:49:12.478Z,49.40
2023-05-05T10:50:11.123Z,51.16
2023-05-05T10:51:11.016Z,50.49
2023-05-05T10:52:10.796Z,51.96
2023-05-05T10:53:10.742Z,49.97
2023-05-05T10:54:10.813Z,49.34
2023-05-05T10:55:10.736Z,51.49
2023-05-05T10:56:10.712Z,48.49
2023-05-05T10:57:10.754Z,52.28
2023-05-05T10:58:10.742Z,49.11
2023-05-05T10:59:10.654Z,48.77
2023-05-05T11:00:10.666Z,48.71
2023-05-05T11:01:10.721Z,49.31
2023-05-05T11:02:10.611Z,50.37
2023-05-05T11:03:10.735Z,50.19
2023-05-05T11:04:10.768Z,49.25
2023-05-05T11:05:10.775Z,51.91
2023-05-05T11:06:11.656Z,48.65
2023-05-05T11:07:14.743Z,49.67
2023-05-05T11:08:12.193Z,49.79
2023-05-05T11:09:10.873Z,49.04
2023-05-05T11:10:10.829Z,51.88
2023-05-05T11:11:10.655Z,51.35
2023-05-05T11:12:10.593Z,51.34
2023-05-05T11:13:11.171Z,52.65
2023-05-05T11:14:10.634Z,50.35
2023-05-05T11:15:10.705Z,48.86
2023-05-05T11:16:10.550Z,47.72
2023-05-05T11:17:10.500Z,49.50
2023-05-05T11:18:12.192Z,49.81
2023-05-05T11:19:12.504Z,49.60
2023-05-05T11:20:10.689Z,49.58
2023-05-05T11:21:10.924Z,50.14
2023-05-05T11:22:11.258Z,50.36
2023-05-05T11:23:10.578Z,49.77
2023-05-05T11:24:11.204Z,48.59
2023-05-05T11:25:10.448Z,48.47
2023-05-05T11:26:10.443Z,50.37
2023-05-05T11:27:10.399Z,50.79
2023-05-05T11:28:10.405Z,50.39
2023-05-05T11:29:10.407Z,48.07
2023-05-05T11:30:10.823Z,50.98
2023-05-05T11:31:10.479Z,49.73
2023-05-05T11:32:10.361Z,50.11
2023-05-05T11:33:10.676Z,51.51
2023-05-05T11:34:10.499Z,52.72
2023-05-05T11:35:10.289Z,51.22
2023-05-05T11:36:10.384Z,49.27
2023-05-05T11:37:10.325Z,52.17
2023-05-05T11:38:10.341Z,52.50
2023-05-05T11:39:10.483Z,50.03
2023-05-05T11:40:10.529Z,52.06
2023-05-05T11:41:10.334Z,51.48
2023-05-05T11:42:10.954Z,52.66
2023-05-05T11:43:11.244Z,52.28
2023-05-05T11:44:10.368Z,51.66
2023-05-05T11:45:10.406Z,51.25
2023-05-05T11:46:10.230Z,52.65
2023-05-05T11:47:10.302Z,52.56
2023-05-05T11:48:10.195Z,55.08
2023-05-05T11:49:10.201Z,56.10
2023-05-05T11:50:10.428Z,54.60
2023-05-05T11:51:10.191Z,57.96
2023-05-05T11:52:10.261Z,55.23
2023-05-05T11:53:10.204Z,58.12
2023-05-05T11:54:10.175Z,57.92
2023-05-05T11:55:10.251Z,62.01
2023-05-05T11:56:10.184Z,59.68
2023-05-05T11:57:10.174Z,56.36
2023-05-05T11:58:10.108Z,57.03
2023-05-05T11:59:10.172Z,53.76
2023-05-05T12:00:10.260Z,56.36
2023-05-05T12:01:11.155Z,55.69
2023-05-05T12:02:10.069Z,57.14
2023-05-05T12:03:10.114Z,54.50
2023-05-05T12:04:10.914Z,56.68
2023-05-05T12:05:10.168Z,57.36
2023-05-05T12:06:10.870Z,57.38
2023-05-05T12:07:10.228Z,56.89
2023-05-05T12:08:10.058Z,55.06
2023-05-05T12:09:10.128Z,56.64
2023-05-05T12:10:11.806Z,56.05
2023-05-05T12:11:11.171Z,57.82
2023-05-05T12:12:12.555Z,58.08
2023-05-05T12:13:10.240Z,61.90
2023-05-05T12:14:10.028Z,63.29
2023-05-05T12:15:10.052Z,67.18
2023-05-05T12:16:10.026Z,66.49
2023-05-05T12:17:10.290Z,67.73
2023-05-05T12:18:17.583Z,69.21
2023-05-05T12:19:28.919Z,71.62
2023-05-05T12:20:22.034Z,71.20
2023-05-05T12:21:14.318Z,70.94
2023-05-05T12:22:10.455Z,70.01
2023-05-05T12:23:11.111Z,70.13
2023-05-05T12:24:10.714Z,69.44
2023-05-05T12:25:10.080Z,70.05
2023-05-05T12:26:09.852Z,70.22
2023-05-05T12:27:09.876Z,71.04
2023-05-05T12:33:18.452Z,66.68
2023-05-05T12:34:17.759Z,62.92
2023-05-05T12:35:17.679Z,60.62
2023-05-05T12:36:17.811Z,58.60
2023-05-05T12:37:17.660Z,59.62
2023-05-05T12:38:18.732Z,58.72
2023-05-05T12:39:17.750Z,56.56
2023-05-05T12:40:18.148Z,60.21
2023-05-05T12:41:18.376Z,58.38
2023-05-05T12:42:19.473Z,57.24
2023-05-05T12:43:17.576Z,60.21
2023-05-05T12:44:18.261Z,59.88
2023-05-05T12:45:21.877Z,56.48
2023-05-05T12:46:17.567Z,57.22
2023-05-05T12:47:17.507Z,57.21
2023-05-05T12:48:17.431Z,56.23
2023-05-05T12:49:17.517Z,59.43
2023-05-05T12:50:17.452Z,58.28
2023-05-05T12:51:17.504Z,58.14
2023-05-05T12:52:17.434Z,57.15
2023-05-05T12:53:17.453Z,57.95
2023-05-05T12:54:18.106Z,58.49
2023-05-05T12:55:17.434Z,58.61
2023-05-05T12:56:17.401Z,59.69
2023-05-05T12:57:17.475Z,56.74
2023-05-05T12:58:17.359Z,56.52
2023-05-05T12:59:17.363Z,56.96
2023-05-05T13:00:17.318Z,55.87
2023-05-05T13:01:17.507Z,57.38
2023-05-05T13:02:17.362Z,56.91
2023-05-05T13:03:18.399Z,56.33
2023-05-05T13:04:17.300Z,57.11
2023-05-05T13:05:17.255Z,57.06
2023-05-05T13:06:17.336Z,56.77
2023-05-05T13:07:17.274Z,57.28
2023-05-05T13:08:17.234Z,55.87
2023-05-05T13:09:17.273Z,54.32
2023-05-05T13:10:17.350Z,56.56
2023-05-05T13:11:17.252Z,55.82
2023-05-05T13:12:17.259Z,56.52
2023-05-05T13:13:17.366Z,55.13
2023-05-05T13:14:17.263Z,52.86
2023-05-05T13:15:17.333Z,55.83
2023-05-05T13:16:17.224Z,54.75
2023-05-05T13:17:17.214Z,55.03
2023-05-05T13:18:21.856Z,57.85
2023-05-05T13:19:19.758Z,55.70
2023-05-05T13:20:17.624Z,54.62
2023-05-05T13:21:17.246Z,53.20
2023-05-05T13:22:18.110Z,55.02
2023-05-05T13:23:18.104Z,52.35
2023-05-05T13:25:18.165Z,54.53
2023-05-05T13:26:17.590Z,53.08
2023-05-05T13:27:17.271Z,51.75
2023-05-05T13:28:19.534Z,55.69
2023-05-05T13:29:18.194Z,54.20
2023-05-05T13:30:17.728Z,53.85
2023-05-05T13:31:17.120Z,54.04
2023-05-05T13:32:17.108Z,53.46
2023-05-05T13:33:17.154Z,53.95
2023-05-05T13:34:18.478Z,54.70
2023-05-05T13:35:17.118Z,53.92
2023-05-05T13:36:17.134Z,56.07
2023-05-05T13:37:17.065Z,56.66
2023-05-05T13:38:17.070Z,54.47
2023-05-05T13:39:17.045Z,52.20
2023-05-05T13:40:17.153Z,54.60